Terminal Aerodrome Forecast
Issued by NWS

Home | Current Version | Previous Version | Text Only | Print | Product List | Glossary On
Versions: 1 2 3 4 5 6 7 8 9 10 11 12 13 14 15 16 17 18 19 20 21 22 23
000
FTUS45 KGJT 172323
TAFCNY
TAF
KCNY 172323Z 1800/1824 00000KT P6SM SKC
     FM181400 19008KT P6SM FEW250
     FM181600 18012KT P6SM FEW250
     FM181800 20019G30KT P6SM FEW100 FEW250
     FM182300 21023G34KT P6SM FEW100 SCT200=

USA.gov is the U.S. government's official web portal to all federal, state and local government web resources and services.